Airfield :
LOGIN :

Register | Disclaimer

   EN    FR    IT 

 










Legend :    VFR   Marginal VFR   IFR   Intensive IFR   Very Intensive IFR
Visi :
Ceiling :
>= 8 km
>= 3000ft
5 to 8 km
1000 to 3000 ft
1500m to 5 km
500 to 1000 ft
800 to 1500m
200 to 500 ft
< 800m
< 200 ft
Symbols :   Thunderstorms  Fog  Heavy snow  Heavy precipitations  Wind > 20 kt
SIGMETs :     Misc.  Thunderstorms  Icing  Turbulence  Mountain Waves  Volcanic Ashes







- Airport Elevation : 13 ft
- IATA code : CEQ
- Download approach charts


LFMD - Cannes Mandelieu

CURRENT METAR :
  • 222200Z AUTO VRB02KT 9999 FEW058/// SCT074/// OVC084/// ///CB 24/19 Q1014

EXPIRED METARs :
  • 222130Z AUTO 31003KT 9999 BKN062/// OVC072/// ///CB 24/19 Q1014
  • 222100Z AUTO VRB01KT 9999 OVC070/// ///CB 24/19 Q1014 BECMG 10012KT FEW040 BKN070
  • 222030Z AUTO VRB02KT 9999 FEW070/// OVC100/// ///CB 24/18 Q1013 BECMG 10012KT FEW040 BKN070
  • 222000Z AUTO 33001KT 9999 BKN068 OVC100 24/19 Q1013 BECMG 10012KT
  • 221930Z AUTO VRB02KT 9999 BKN066/// BKN100/// ///TCU 24/19 Q1012 BECMG 10012KT FEW040 BKN070

TAF TAF LFMD
Valid from the 22 at 15:00 until the 23 at 15:00 UTC


221400Z 2215/2315 10012KT 9999 SCT040
BECMG 2217/2218 FEW040 BKN070
BECMG 2300/2301 36006KT
BECMG 2305/2306 CAVOK
BECMG 2307/2308 09010KT
TEMPO 2310/2315 BKN040
ATIS : +33 4 93 48 73 23
No reported NOTAMs for that airfield.
1 SIGMET reported for the Marseille FIR (LFMM) :
 
Severe turbulence
LFMM SIGMET 4 VALID 221900/222300 LFPW
LFMM MARSEILLE FIR/UIR SEV TURB FCST WI N4500 E00500 - N4300 E00515 - N4315 E00415 - N4500 E00330 - N4500 E00500 SFC/FL050 STNR WKN=



MET'MAP, your aeronautical weather chart ! - Copyright ORBIFLY December 2007 - Disclaimer

ORBIFLY MET'MAP TEAM :

Programming & Development : Alexandra Zaïnal
Concept & Development : Baudouin d'Aumeries
Co-Development & Prog : Marc-Olivier Méhu
Technical & hardware support : Manuel Goepfert

Contact : metmap@orbifly.com




SOURCES & CREDITS :

   NOAA